sensor_id;sensor_type;location;lat;lon;timestamp;P1;durP1;ratioP1;P2;durP2;ratioP2
75038;SDS011;63609;49.992;14.512;2023-12-14T00:01:53;29.15;;;13.55;;
75038;SDS011;63609;49.992;14.512;2023-12-14T00:04:20;29.15;;;14.25;;
75038;SDS011;63609;49.992;14.512;2023-12-14T00:06:50;29.27;;;14.18;;
75038;SDS011;63609;49.992;14.512;2023-12-14T00:09:17;33.72;;;15.38;;
75038;SDS011;63609;49.992;14.512;2023-12-14T00:11:43;33.72;;;14.88;;
75038;SDS011;63609;49.992;14.512;2023-12-14T00:14:11;50.35;;;17.98;;
75038;SDS011;63609;49.992;14.512;2023-12-14T00:16:37;46.92;;;16.48;;
75038;SDS011;63609;49.992;14.512;2023-12-14T00:19:04;41.25;;;15.82;;
75038;SDS011;63609;49.992;14.512;2023-12-14T00:21:31;46.28;;;16.45;;
75038;SDS011;63609;49.992;14.512;2023-12-14T00:26:24;33.63;;;14.07;;
75038;SDS011;63609;49.992;14.512;2023-12-14T00:31:27;42.92;;;14.82;;
75038;SDS011;63609;49.992;14.512;2023-12-14T00:36:20;38.65;;;14.15;;
75038;SDS011;63609;49.992;14.512;2023-12-14T00:41:14;32.25;;;12.25;;
75038;SDS011;63609;49.992;14.512;2023-12-14T00:43:41;42.17;;;14.05;;
75038;SDS011;63609;49.992;14.512;2023-12-14T00:48:34;30.95;;;14.20;;
75038;SDS011;63609;49.992;14.512;2023-12-14T00:51:01;38.35;;;15.43;;
75038;SDS011;63609;49.992;14.512;2023-12-14T00:53:28;39.03;;;15.48;;
75038;SDS011;63609;49.992;14.512;2023-12-14T00:55:55;42.08;;;15.38;;
75038;SDS011;63609;49.992;14.512;2023-12-14T01:03:31;52.65;;;14.77;;
75038;SDS011;63609;49.992;14.512;2023-12-14T01:05:59;53.15;;;15.77;;
75038;SDS011;63609;49.992;14.512;2023-12-14T01:08:25;51.70;;;15.15;;
75038;SDS011;63609;49.992;14.512;2023-12-14T01:13:19;38.97;;;12.80;;
75038;SDS011;63609;49.992;14.512;2023-12-14T01:18:12;40.95;;;15.93;;
75038;SDS011;63609;49.992;14.512;2023-12-14T01:20:39;37.67;;;14.90;;
75038;SDS011;63609;49.992;14.512;2023-12-14T01:25:36;41.17;;;14.90;;
75038;SDS011;63609;49.992;14.512;2023-12-14T01:28:03;50.33;;;15.00;;
75038;SDS011;63609;49.992;14.512;2023-12-14T01:30:29;41.50;;;14.57;;
75038;SDS011;63609;49.992;14.512;2023-12-14T01:35:23;49.42;;;15.95;;
75038;SDS011;63609;49.992;14.512;2023-12-14T01:37:50;53.13;;;16.70;;
75038;SDS011;63609;49.992;14.512;2023-12-14T01:40:18;54.15;;;19.00;;
75038;SDS011;63609;49.992;14.512;2023-12-14T01:42:47;62.45;;;18.38;;
75038;SDS011;63609;49.992;14.512;2023-12-14T01:47:43;42.28;;;15.00;;
75038;SDS011;63609;49.992;14.512;2023-12-14T01:50:10;41.40;;;15.18;;
75038;SDS011;63609;49.992;14.512;2023-12-14T01:52:37;35.63;;;14.48;;
75038;SDS011;63609;49.992;14.512;2023-12-14T01:55:04;35.92;;;14.00;;
75038;SDS011;63609;49.992;14.512;2023-12-14T01:57:31;36.92;;;14.60;;
75038;SDS011;63609;49.992;14.512;2023-12-14T02:02:24;32.85;;;13.93;;
75038;SDS011;63609;49.992;14.512;2023-12-14T02:04:52;36.75;;;15.55;;
75038;SDS011;63609;49.992;14.512;2023-12-14T02:07:19;43.42;;;14.45;;
75038;SDS011;63609;49.992;14.512;2023-12-14T02:12:12;34.97;;;14.00;;
75038;SDS011;63609;49.992;14.512;2023-12-14T02:14:39;39.08;;;14.20;;
75038;SDS011;63609;49.992;14.512;2023-12-14T02:17:07;42.72;;;15.10;;
75038;SDS011;63609;49.992;14.512;2023-12-14T02:19:34;57.30;;;18.25;;
75038;SDS011;63609;49.992;14.512;2023-12-14T02:22:01;46.78;;;16.25;;
75038;SDS011;63609;49.992;14.512;2023-12-14T02:24:27;48.20;;;17.73;;
75038;SDS011;63609;49.992;14.512;2023-12-14T02:29:29;44.47;;;15.75;;
75038;SDS011;63609;49.992;14.512;2023-12-14T02:31:57;44.08;;;15.95;;
75038;SDS011;63609;49.992;14.512;2023-12-14T02:34:24;39.83;;;14.60;;
75038;SDS011;63609;49.992;14.512;2023-12-14T02:36:52;43.70;;;15.80;;
75038;SDS011;63609;49.992;14.512;2023-12-14T02:39:19;39.50;;;13.93;;
75038;SDS011;63609;49.992;14.512;2023-12-14T02:44:12;36.70;;;13.82;;
75038;SDS011;63609;49.992;14.512;2023-12-14T02:46:39;41.78;;;15.75;;
75038;SDS011;63609;49.992;14.512;2023-12-14T02:49:06;36.58;;;15.32;;
75038;SDS011;63609;49.992;14.512;2023-12-14T02:51:33;36.83;;;14.10;;
75038;SDS011;63609;49.992;14.512;2023-12-14T02:54:00;36.45;;;13.07;;
75038;SDS011;63609;49.992;14.512;2023-12-14T02:56:27;35.92;;;13.88;;
75038;SDS011;63609;49.992;14.512;2023-12-14T03:01:20;35.22;;;12.95;;
75038;SDS011;63609;49.992;14.512;2023-12-14T03:03:50;33.15;;;14.05;;
75038;SDS011;63609;49.992;14.512;2023-12-14T03:06:17;36.35;;;15.43;;
75038;SDS011;63609;49.992;14.512;2023-12-14T03:08:44;43.78;;;15.13;;
75038;SDS011;63609;49.992;14.512;2023-12-14T03:13:47;40.22;;;14.68;;
75038;SDS011;63609;49.992;14.512;2023-12-14T03:16:13;38.72;;;15.55;;
75038;SDS011;63609;49.992;14.512;2023-12-14T03:18:40;47.22;;;14.15;;
75038;SDS011;63609;49.992;14.512;2023-12-14T03:21:07;49.05;;;15.30;;
75038;SDS011;63609;49.992;14.512;2023-12-14T03:26:01;44.35;;;15.07;;
75038;SDS011;63609;49.992;14.512;2023-12-14T03:28:28;43.22;;;15.63;;
75038;SDS011;63609;49.992;14.512;2023-12-14T03:30:55;46.10;;;14.95;;
75038;SDS011;63609;49.992;14.512;2023-12-14T03:33:22;49.42;;;15.77;;
75038;SDS011;63609;49.992;14.512;2023-12-14T03:35:49;40.88;;;15.73;;
75038;SDS011;63609;49.992;14.512;2023-12-14T03:40:42;47.75;;;15.55;;
75038;SDS011;63609;49.992;14.512;2023-12-14T03:43:09;50.38;;;15.45;;
75038;SDS011;63609;49.992;14.512;2023-12-14T03:45:36;66.93;;;16.38;;
75038;SDS011;63609;49.992;14.512;2023-12-14T03:50:29;64.63;;;16.30;;
75038;SDS011;63609;49.992;14.512;2023-12-14T03:52:57;56.47;;;16.75;;
75038;SDS011;63609;49.992;14.512;2023-12-14T03:57:50;61.33;;;17.50;;
75038;SDS011;63609;49.992;14.512;2023-12-14T04:00:17;62.97;;;17.77;;
75038;SDS011;63609;49.992;14.512;2023-12-14T04:02:43;46.20;;;16.45;;
75038;SDS011;63609;49.992;14.512;2023-12-14T04:05:11;58.50;;;16.73;;
75038;SDS011;63609;49.992;14.512;2023-12-14T04:07:39;65.40;;;17.30;;
75038;SDS011;63609;49.992;14.512;2023-12-14T04:10:11;50.28;;;16.35;;
75038;SDS011;63609;49.992;14.512;2023-12-14T04:12:38;49.13;;;16.77;;
75038;SDS011;63609;49.992;14.512;2023-12-14T04:15:07;58.60;;;16.38;;
75038;SDS011;63609;49.992;14.512;2023-12-14T04:17:35;49.65;;;15.15;;
75038;SDS011;63609;49.992;14.512;2023-12-14T04:20:03;48.08;;;15.55;;
75038;SDS011;63609;49.992;14.512;2023-12-14T04:22:32;41.30;;;16.08;;
75038;SDS011;63609;49.992;14.512;2023-12-14T04:25:00;51.78;;;15.00;;
75038;SDS011;63609;49.992;14.512;2023-12-14T04:27:26;43.95;;;16.00;;
75038;SDS011;63609;49.992;14.512;2023-12-14T04:29:55;39.88;;;15.05;;
75038;SDS011;63609;49.992;14.512;2023-12-14T04:32:22;51.17;;;15.45;;
75038;SDS011;63609;49.992;14.512;2023-12-14T04:34:48;39.72;;;14.40;;
75038;SDS011;63609;49.992;14.512;2023-12-14T04:37:15;40.45;;;14.40;;
75038;SDS011;63609;49.992;14.512;2023-12-14T04:42:09;27.42;;;11.55;;
75038;SDS011;63609;49.992;14.512;2023-12-14T04:47:02;36.97;;;13.90;;
75038;SDS011;63609;49.992;14.512;2023-12-14T04:49:29;38.60;;;13.05;;
75038;SDS011;63609;49.992;14.512;2023-12-14T04:51:56;39.72;;;13.93;;
75038;SDS011;63609;49.992;14.512;2023-12-14T04:56:49;33.50;;;12.27;;
75038;SDS011;63609;49.992;14.512;2023-12-14T04:59:16;39.10;;;12.20;;
75038;SDS011;63609;49.992;14.512;2023-12-14T05:01:43;36.53;;;13.70;;
75038;SDS011;63609;49.992;14.512;2023-12-14T05:04:10;44.33;;;14.18;;
75038;SDS011;63609;49.992;14.512;2023-12-14T05:06:38;47.13;;;13.82;;
75038;SDS011;63609;49.992;14.512;2023-12-14T05:09:05;36.15;;;15.05;;
75038;SDS011;63609;49.992;14.512;2023-12-14T05:11:33;38.20;;;13.65;;
75038;SDS011;63609;49.992;14.512;2023-12-14T05:14:00;36.17;;;14.05;;
75038;SDS011;63609;49.992;14.512;2023-12-14T05:16:26;43.38;;;13.50;;
75038;SDS011;63609;49.992;14.512;2023-12-14T05:18:53;53.28;;;13.38;;
75038;SDS011;63609;49.992;14.512;2023-12-14T05:21:20;38.22;;;12.93;;
75038;SDS011;63609;49.992;14.512;2023-12-14T05:26:14;37.30;;;13.02;;
75038;SDS011;63609;49.992;14.512;2023-12-14T05:28:41;33.38;;;12.52;;
75038;SDS011;63609;49.992;14.512;2023-12-14T05:31:09;40.38;;;13.15;;
75038;SDS011;63609;49.992;14.512;2023-12-14T05:36:06;32.20;;;10.93;;
75038;SDS011;63609;49.992;14.512;2023-12-14T05:38:40;32.28;;;10.73;;
75038;SDS011;63609;49.992;14.512;2023-12-14T05:41:08;33.33;;;11.82;;
75038;SDS011;63609;49.992;14.512;2023-12-14T05:43:35;36.95;;;12.88;;
75038;SDS011;63609;49.992;14.512;2023-12-14T05:46:03;35.80;;;13.60;;
75038;SDS011;63609;49.992;14.512;2023-12-14T05:48:30;40.03;;;13.38;;
75038;SDS011;63609;49.992;14.512;2023-12-14T05:50:59;42.08;;;14.50;;
75038;SDS011;63609;49.992;14.512;2023-12-14T05:53:26;36.15;;;13.98;;
75038;SDS011;63609;49.992;14.512;2023-12-14T05:55:53;37.50;;;12.98;;
75038;SDS011;63609;49.992;14.512;2023-12-14T05:58:20;29.95;;;13.48;;
75038;SDS011;63609;49.992;14.512;2023-12-14T06:03:13;30.77;;;12.23;;
75038;SDS011;63609;49.992;14.512;2023-12-14T06:08:07;34.63;;;10.95;;
75038;SDS011;63609;49.992;14.512;2023-12-14T06:10:34;30.02;;;12.30;;
75038;SDS011;63609;49.992;14.512;2023-12-14T06:13:01;40.53;;;14.07;;
75038;SDS011;63609;49.992;14.512;2023-12-14T06:15:28;35.58;;;11.85;;
75038;SDS011;63609;49.992;14.512;2023-12-14T06:20:21;26.35;;;11.73;;
75038;SDS011;63609;49.992;14.512;2023-12-14T06:22:49;30.80;;;13.52;;
75038;SDS011;63609;49.992;14.512;2023-12-14T06:25:16;41.30;;;13.32;;
75038;SDS011;63609;49.992;14.512;2023-12-14T06:30:10;29.77;;;11.60;;
75038;SDS011;63609;49.992;14.512;2023-12-14T06:32:38;27.98;;;11.85;;
75038;SDS011;63609;49.992;14.512;2023-12-14T06:35:06;37.45;;;12.65;;
75038;SDS011;63609;49.992;14.512;2023-12-14T06:37:33;40.45;;;12.13;;
75038;SDS011;63609;49.992;14.512;2023-12-14T06:40:00;34.00;;;13.57;;
75038;SDS011;63609;49.992;14.512;2023-12-14T06:42:27;27.70;;;13.73;;
75038;SDS011;63609;49.992;14.512;2023-12-14T06:44:55;26.52;;;11.68;;
75038;SDS011;63609;49.992;14.512;2023-12-14T06:47:21;33.50;;;13.10;;
75038;SDS011;63609;49.992;14.512;2023-12-14T06:49:49;49.58;;;14.00;;
75038;SDS011;63609;49.992;14.512;2023-12-14T06:52:16;45.85;;;13.45;;
75038;SDS011;63609;49.992;14.512;2023-12-14T06:57:10;42.72;;;11.73;;
75038;SDS011;63609;49.992;14.512;2023-12-14T06:59:37;39.42;;;13.05;;
75038;SDS011;63609;49.992;14.512;2023-12-14T07:02:03;38.47;;;13.15;;
75038;SDS011;63609;49.992;14.512;2023-12-14T07:04:30;35.92;;;12.73;;
75038;SDS011;63609;49.992;14.512;2023-12-14T07:09:24;36.25;;;11.70;;
75038;SDS011;63609;49.992;14.512;2023-12-14T07:11:51;36.03;;;11.68;;
75038;SDS011;63609;49.992;14.512;2023-12-14T07:14:18;41.33;;;13.18;;
75038;SDS011;63609;49.992;14.512;2023-12-14T07:16:49;26.10;;;12.18;;
75038;SDS011;63609;49.992;14.512;2023-12-14T07:19:16;25.63;;;11.98;;
75038;SDS011;63609;49.992;14.512;2023-12-14T07:21:43;25.45;;;12.75;;
75038;SDS011;63609;49.992;14.512;2023-12-14T07:24:09;28.52;;;12.38;;
75038;SDS011;63609;49.992;14.512;2023-12-14T07:29:03;25.15;;;11.05;;
75038;SDS011;63609;49.992;14.512;2023-12-14T07:31:30;27.52;;;13.23;;
75038;SDS011;63609;49.992;14.512;2023-12-14T07:36:23;32.45;;;12.88;;
75038;SDS011;63609;49.992;14.512;2023-12-14T07:41:20;24.90;;;10.77;;
75038;SDS011;63609;49.992;14.512;2023-12-14T07:43:53;28.15;;;11.80;;
75038;SDS011;63609;49.992;14.512;2023-12-14T07:46:20;22.00;;;9.95;;
75038;SDS011;63609;49.992;14.512;2023-12-14T07:48:47;21.38;;;10.95;;
75038;SDS011;63609;49.992;14.512;2023-12-14T07:51:14;21.42;;;11.55;;
75038;SDS011;63609;49.992;14.512;2023-12-14T07:53:41;31.67;;;12.23;;
75038;SDS011;63609;49.992;14.512;2023-12-14T07:56:09;25.92;;;11.43;;
75038;SDS011;63609;49.992;14.512;2023-12-14T07:58:36;26.98;;;11.80;;
75038;SDS011;63609;49.992;14.512;2023-12-14T08:01:02;22.48;;;11.35;;
75038;SDS011;63609;49.992;14.512;2023-12-14T08:03:30;26.75;;;10.70;;
75038;SDS011;63609;49.992;14.512;2023-12-14T08:05:57;26.17;;;11.70;;
75038;SDS011;63609;49.992;14.512;2023-12-14T08:08:25;27.38;;;12.23;;
75038;SDS011;63609;49.992;14.512;2023-12-14T08:10:52;26.80;;;11.27;;
75038;SDS011;63609;49.992;14.512;2023-12-14T08:13:19;23.40;;;10.40;;
75038;SDS011;63609;49.992;14.512;2023-12-14T08:15:46;27.27;;;10.40;;
75038;SDS011;63609;49.992;14.512;2023-12-14T08:20:40;24.67;;;9.98;;
75038;SDS011;63609;49.992;14.512;2023-12-14T08:25:33;24.52;;;11.23;;
75038;SDS011;63609;49.992;14.512;2023-12-14T08:28:00;29.15;;;11.32;;
75038;SDS011;63609;49.992;14.512;2023-12-14T08:30:31;29.08;;;12.27;;
75038;SDS011;63609;49.992;14.512;2023-12-14T08:32:58;27.70;;;12.18;;
75038;SDS011;63609;49.992;14.512;2023-12-14T08:35:24;30.85;;;13.98;;
75038;SDS011;63609;49.992;14.512;2023-12-14T08:37:51;31.05;;;13.77;;
75038;SDS011;63609;49.992;14.512;2023-12-14T08:40:18;25.08;;;11.40;;
75038;SDS011;63609;49.992;14.512;2023-12-14T08:45:13;17.60;;;7.63;;
75038;SDS011;63609;49.992;14.512;2023-12-14T08:47:41;16.15;;;8.10;;
75038;SDS011;63609;49.992;14.512;2023-12-14T08:50:09;21.05;;;9.48;;
75038;SDS011;63609;49.992;14.512;2023-12-14T08:52:36;18.25;;;8.20;;
75038;SDS011;63609;49.992;14.512;2023-12-14T08:55:04;18.08;;;8.45;;
75038;SDS011;63609;49.992;14.512;2023-12-14T08:57:31;20.30;;;9.68;;
75038;SDS011;63609;49.992;14.512;2023-12-14T08:59:58;20.55;;;9.00;;
75038;SDS011;63609;49.992;14.512;2023-12-14T09:04:52;19.58;;;8.55;;
75038;SDS011;63609;49.992;14.512;2023-12-14T09:07:19;19.52;;;9.13;;
75038;SDS011;63609;49.992;14.512;2023-12-14T09:09:46;16.35;;;7.63;;
75038;SDS011;63609;49.992;14.512;2023-12-14T09:12:12;18.38;;;9.18;;
75038;SDS011;63609;49.992;14.512;2023-12-14T09:14:43;17.33;;;8.63;;
75038;SDS011;63609;49.992;14.512;2023-12-14T09:17:11;18.23;;;8.05;;
75038;SDS011;63609;49.992;14.512;2023-12-14T09:19:38;14.18;;;6.75;;
75038;SDS011;63609;49.992;14.512;2023-12-14T09:22:05;17.42;;;8.88;;
75038;SDS011;63609;49.992;14.512;2023-12-14T09:24:32;17.75;;;7.32;;
75038;SDS011;63609;49.992;14.512;2023-12-14T09:26:59;18.52;;;8.85;;
75038;SDS011;63609;49.992;14.512;2023-12-14T09:31:52;15.00;;;6.90;;
75038;SDS011;63609;49.992;14.512;2023-12-14T09:34:19;16.10;;;7.55;;
75038;SDS011;63609;49.992;14.512;2023-12-14T09:36:46;14.07;;;7.50;;
75038;SDS011;63609;49.992;14.512;2023-12-14T09:39:13;16.67;;;7.30;;
75038;SDS011;63609;49.992;14.512;2023-12-14T09:41:41;16.48;;;7.03;;
75038;SDS011;63609;49.992;14.512;2023-12-14T09:44:08;16.45;;;7.55;;
75038;SDS011;63609;49.992;14.512;2023-12-14T09:46:36;16.80;;;7.78;;
75038;SDS011;63609;49.992;14.512;2023-12-14T09:49:04;16.25;;;7.18;;
75038;SDS011;63609;49.992;14.512;2023-12-14T09:51:34;16.90;;;7.38;;
75038;SDS011;63609;49.992;14.512;2023-12-14T09:54:02;18.00;;;8.43;;
75038;SDS011;63609;49.992;14.512;2023-12-14T09:56:29;15.23;;;6.32;;
75038;SDS011;63609;49.992;14.512;2023-12-14T09:58:57;16.17;;;7.05;;
75038;SDS011;63609;49.992;14.512;2023-12-14T10:01:27;19.63;;;8.80;;
75038;SDS011;63609;49.992;14.512;2023-12-14T10:04:06;20.15;;;7.22;;
75038;SDS011;63609;49.992;14.512;2023-12-14T10:06:38;14.98;;;7.93;;
75038;SDS011;63609;49.992;14.512;2023-12-14T10:09:06;17.80;;;7.85;;
75038;SDS011;63609;49.992;14.512;2023-12-14T10:11:36;19.35;;;7.78;;
75038;SDS011;63609;49.992;14.512;2023-12-14T10:14:09;14.45;;;7.05;;
75038;SDS011;63609;49.992;14.512;2023-12-14T10:16:45;14.70;;;7.57;;
75038;SDS011;63609;49.992;14.512;2023-12-14T10:19:12;14.23;;;6.90;;
75038;SDS011;63609;49.992;14.512;2023-12-14T10:21:39;16.73;;;7.70;;
75038;SDS011;63609;49.992;14.512;2023-12-14T10:24:07;15.13;;;7.22;;
75038;SDS011;63609;49.992;14.512;2023-12-14T10:26:34;13.73;;;6.25;;
75038;SDS011;63609;49.992;14.512;2023-12-14T10:29:02;11.00;;;5.40;;
75038;SDS011;63609;49.992;14.512;2023-12-14T10:31:31;16.73;;;7.22;;
75038;SDS011;63609;49.992;14.512;2023-12-14T10:33:58;16.02;;;6.43;;
75038;SDS011;63609;49.992;14.512;2023-12-14T10:36:25;12.98;;;5.75;;
75038;SDS011;63609;49.992;14.512;2023-12-14T10:38:52;14.10;;;7.03;;
75038;SDS011;63609;49.992;14.512;2023-12-14T10:41:23;13.27;;;5.72;;
75038;SDS011;63609;49.992;14.512;2023-12-14T10:43:55;16.40;;;7.55;;
75038;SDS011;63609;49.992;14.512;2023-12-14T10:46:42;15.30;;;6.97;;
75038;SDS011;63609;49.992;14.512;2023-12-14T10:49:14;17.83;;;7.78;;
75038;SDS011;63609;49.992;14.512;2023-12-14T10:51:42;14.10;;;6.88;;
75038;SDS011;63609;49.992;14.512;2023-12-14T10:54:12;17.17;;;7.43;;
75038;SDS011;63609;49.992;14.512;2023-12-14T10:56:41;11.98;;;6.53;;
75038;SDS011;63609;49.992;14.512;2023-12-14T10:59:08;18.88;;;8.70;;
75038;SDS011;63609;49.992;14.512;2023-12-14T11:01:35;15.07;;;7.05;;
75038;SDS011;63609;49.992;14.512;2023-12-14T11:04:05;16.55;;;7.13;;
75038;SDS011;63609;49.992;14.512;2023-12-14T11:06:37;15.85;;;7.45;;
75038;SDS011;63609;49.992;14.512;2023-12-14T11:09:05;15.02;;;7.95;;
75038;SDS011;63609;49.992;14.512;2023-12-14T11:11:40;15.73;;;7.70;;
75038;SDS011;63609;49.992;14.512;2023-12-14T11:14:16;13.85;;;6.53;;
75038;SDS011;63609;49.992;14.512;2023-12-14T11:16:47;12.70;;;6.85;;
75038;SDS011;63609;49.992;14.512;2023-12-14T11:21:49;17.08;;;7.18;;
75038;SDS011;63609;49.992;14.512;2023-12-14T11:24:36;17.67;;;8.07;;
75038;SDS011;63609;49.992;14.512;2023-12-14T11:27:06;17.58;;;7.57;;
75038;SDS011;63609;49.992;14.512;2023-12-14T11:29:36;17.27;;;6.78;;
75038;SDS011;63609;49.992;14.512;2023-12-14T11:32:05;13.65;;;7.30;;
75038;SDS011;63609;49.992;14.512;2023-12-14T11:34:33;13.73;;;6.88;;
75038;SDS011;63609;49.992;14.512;2023-12-14T11:37:00;14.23;;;7.68;;
75038;SDS011;63609;49.992;14.512;2023-12-14T11:39:30;12.60;;;6.75;;
75038;SDS011;63609;49.992;14.512;2023-12-14T11:42:01;10.80;;;5.53;;
75038;SDS011;63609;49.992;14.512;2023-12-14T11:44:29;12.75;;;6.35;;
75038;SDS011;63609;49.992;14.512;2023-12-14T11:46:57;16.15;;;7.22;;
75038;SDS011;63609;49.992;14.512;2023-12-14T11:49:25;13.05;;;6.35;;
75038;SDS011;63609;49.992;14.512;2023-12-14T11:51:55;15.77;;;6.40;;
75038;SDS011;63609;49.992;14.512;2023-12-14T11:54:23;14.13;;;6.05;;
75038;SDS011;63609;49.992;14.512;2023-12-14T11:56:50;13.48;;;5.82;;
75038;SDS011;63609;49.992;14.512;2023-12-14T11:59:17;10.93;;;5.85;;
75038;SDS011;63609;49.992;14.512;2023-12-14T12:01:55;12.85;;;6.43;;
75038;SDS011;63609;49.992;14.512;2023-12-14T12:04:24;12.70;;;6.45;;
75038;SDS011;63609;49.992;14.512;2023-12-14T12:06:58;13.40;;;5.97;;
75038;SDS011;63609;49.992;14.512;2023-12-14T12:09:34;14.85;;;7.95;;
75038;SDS011;63609;49.992;14.512;2023-12-14T12:12:04;18.10;;;7.47;;
75038;SDS011;63609;49.992;14.512;2023-12-14T12:14:32;15.10;;;7.22;;
75038;SDS011;63609;49.992;14.512;2023-12-14T12:16:59;15.43;;;6.82;;
75038;SDS011;63609;49.992;14.512;2023-12-14T12:19:26;16.55;;;6.55;;
75038;SDS011;63609;49.992;14.512;2023-12-14T12:21:53;13.68;;;6.32;;
75038;SDS011;63609;49.992;14.512;2023-12-14T12:24:20;10.95;;;5.25;;
75038;SDS011;63609;49.992;14.512;2023-12-14T12:26:53;7.72;;;4.50;;
75038;SDS011;63609;49.992;14.512;2023-12-14T12:29:21;7.55;;;3.55;;
75038;SDS011;63609;49.992;14.512;2023-12-14T12:31:48;7.03;;;3.25;;
75038;SDS011;63609;49.992;14.512;2023-12-14T12:34:15;7.97;;;3.28;;
75038;SDS011;63609;49.992;14.512;2023-12-14T12:36:42;5.47;;;2.58;;
75038;SDS011;63609;49.992;14.512;2023-12-14T12:39:09;5.65;;;2.33;;
75038;SDS011;63609;49.992;14.512;2023-12-14T12:41:36;4.43;;;2.15;;
75038;SDS011;63609;49.992;14.512;2023-12-14T12:44:06;6.30;;;2.72;;
75038;SDS011;63609;49.992;14.512;2023-12-14T12:46:35;5.82;;;2.47;;
75038;SDS011;63609;49.992;14.512;2023-12-14T12:49:02;4.72;;;2.20;;
75038;SDS011;63609;49.992;14.512;2023-12-14T12:51:30;3.70;;;2.33;;
75038;SDS011;63609;49.992;14.512;2023-12-14T12:53:58;5.45;;;2.17;;
75038;SDS011;63609;49.992;14.512;2023-12-14T12:56:38;4.30;;;2.28;;
75038;SDS011;63609;49.992;14.512;2023-12-14T13:01:35;5.25;;;2.20;;
75038;SDS011;63609;49.992;14.512;2023-12-14T13:04:02;4.28;;;2.13;;
75038;SDS011;63609;49.992;14.512;2023-12-14T13:06:31;4.10;;;2.17;;
75038;SDS011;63609;49.992;14.512;2023-12-14T13:08:57;3.00;;;1.55;;
75038;SDS011;63609;49.992;14.512;2023-12-14T13:11:24;3.38;;;1.85;;
75038;SDS011;63609;49.992;14.512;2023-12-14T13:13:51;4.80;;;2.28;;
75038;SDS011;63609;49.992;14.512;2023-12-14T13:16:18;3.85;;;1.95;;
75038;SDS011;63609;49.992;14.512;2023-12-14T13:18:45;4.65;;;2.33;;
75038;SDS011;63609;49.992;14.512;2023-12-14T13:21:12;3.70;;;1.67;;
75038;SDS011;63609;49.992;14.512;2023-12-14T13:23:39;4.22;;;2.38;;
75038;SDS011;63609;49.992;14.512;2023-12-14T13:26:07;4.75;;;2.22;;
75038;SDS011;63609;49.992;14.512;2023-12-14T13:28:35;3.05;;;1.85;;
75038;SDS011;63609;49.992;14.512;2023-12-14T13:31:01;4.63;;;2.05;;
75038;SDS011;63609;49.992;14.512;2023-12-14T13:33:29;5.32;;;2.80;;
75038;SDS011;63609;49.992;14.512;2023-12-14T13:35:56;3.38;;;2.05;;
75038;SDS011;63609;49.992;14.512;2023-12-14T13:38:23;6.07;;;2.50;;
75038;SDS011;63609;49.992;14.512;2023-12-14T13:40:50;5.80;;;2.75;;
75038;SDS011;63609;49.992;14.512;2023-12-14T13:43:17;13.20;;;5.22;;
75038;SDS011;63609;49.992;14.512;2023-12-14T13:48:14;9.63;;;4.13;;
75038;SDS011;63609;49.992;14.512;2023-12-14T13:50:41;9.23;;;4.43;;
75038;SDS011;63609;49.992;14.512;2023-12-14T13:55:35;5.78;;;2.50;;
75038;SDS011;63609;49.992;14.512;2023-12-14T13:58:02;3.95;;;2.28;;
75038;SDS011;63609;49.992;14.512;2023-12-14T14:00:29;5.18;;;2.30;;
75038;SDS011;63609;49.992;14.512;2023-12-14T14:02:56;4.07;;;2.00;;
75038;SDS011;63609;49.992;14.512;2023-12-14T14:05:23;4.65;;;2.40;;
75038;SDS011;63609;49.992;14.512;2023-12-14T14:07:50;3.28;;;1.88;;
75038;SDS011;63609;49.992;14.512;2023-12-14T14:10:21;3.45;;;2.00;;
75038;SDS011;63609;49.992;14.512;2023-12-14T14:12:48;4.22;;;1.90;;
75038;SDS011;63609;49.992;14.512;2023-12-14T14:15:15;4.43;;;2.03;;
75038;SDS011;63609;49.992;14.512;2023-12-14T14:17:42;4.03;;;2.00;;
75038;SDS011;63609;49.992;14.512;2023-12-14T14:20:09;3.55;;;2.00;;
75038;SDS011;63609;49.992;14.512;2023-12-14T14:22:36;3.60;;;1.73;;
75038;SDS011;63609;49.992;14.512;2023-12-14T14:25:05;4.15;;;2.00;;
75038;SDS011;63609;49.992;14.512;2023-12-14T14:27:33;3.63;;;1.90;;
75038;SDS011;63609;49.992;14.512;2023-12-14T14:30:00;2.88;;;1.58;;
75038;SDS011;63609;49.992;14.512;2023-12-14T14:32:27;2.70;;;1.48;;
75038;SDS011;63609;49.992;14.512;2023-12-14T14:34:54;3.22;;;2.08;;
75038;SDS011;63609;49.992;14.512;2023-12-14T14:37:23;4.53;;;2.08;;
75038;SDS011;63609;49.992;14.512;2023-12-14T14:42:16;3.50;;;1.92;;
75038;SDS011;63609;49.992;14.512;2023-12-14T14:44:43;4.25;;;2.33;;
75038;SDS011;63609;49.992;14.512;2023-12-14T14:47:10;5.40;;;2.42;;
75038;SDS011;63609;49.992;14.512;2023-12-14T14:49:37;4.35;;;2.20;;
75038;SDS011;63609;49.992;14.512;2023-12-14T14:52:04;3.83;;;2.25;;
75038;SDS011;63609;49.992;14.512;2023-12-14T14:54:31;4.63;;;2.55;;
75038;SDS011;63609;49.992;14.512;2023-12-14T14:56:58;4.70;;;2.92;;
75038;SDS011;63609;49.992;14.512;2023-12-14T14:59:25;4.93;;;2.35;;
75038;SDS011;63609;49.992;14.512;2023-12-14T15:01:53;5.47;;;2.67;;
75038;SDS011;63609;49.992;14.512;2023-12-14T15:04:22;4.80;;;3.03;;
75038;SDS011;63609;49.992;14.512;2023-12-14T15:06:48;5.75;;;2.30;;
75038;SDS011;63609;49.992;14.512;2023-12-14T15:11:42;9.68;;;3.97;;
75038;SDS011;63609;49.992;14.512;2023-12-14T15:16:35;10.13;;;5.18;;
75038;SDS011;63609;49.992;14.512;2023-12-14T15:19:02;10.23;;;5.35;;
75038;SDS011;63609;49.992;14.512;2023-12-14T15:21:29;9.63;;;4.70;;
75038;SDS011;63609;49.992;14.512;2023-12-14T15:23:56;8.63;;;4.28;;
75038;SDS011;63609;49.992;14.512;2023-12-14T15:26:23;9.63;;;4.15;;
75038;SDS011;63609;49.992;14.512;2023-12-14T15:28:50;9.50;;;4.72;;
75038;SDS011;63609;49.992;14.512;2023-12-14T15:31:17;6.88;;;3.78;;
75038;SDS011;63609;49.992;14.512;2023-12-14T15:33:44;10.85;;;5.50;;
75038;SDS011;63609;49.992;14.512;2023-12-14T15:36:11;11.77;;;6.97;;
75038;SDS011;63609;49.992;14.512;2023-12-14T15:38:38;14.45;;;7.68;;
75038;SDS011;63609;49.992;14.512;2023-12-14T15:41:08;12.40;;;6.18;;
75038;SDS011;63609;49.992;14.512;2023-12-14T15:43:35;11.30;;;5.47;;
75038;SDS011;63609;49.992;14.512;2023-12-14T15:46:02;10.63;;;4.68;;
75038;SDS011;63609;49.992;14.512;2023-12-14T15:48:29;5.40;;;3.42;;
75038;SDS011;63609;49.992;14.512;2023-12-14T15:50:56;6.90;;;3.58;;
75038;SDS011;63609;49.992;14.512;2023-12-14T15:53:23;6.15;;;3.40;;
75038;SDS011;63609;49.992;14.512;2023-12-14T15:55:50;5.57;;;2.60;;
75038;SDS011;63609;49.992;14.512;2023-12-14T15:58:17;5.78;;;3.15;;
75038;SDS011;63609;49.992;14.512;2023-12-14T16:00:44;5.68;;;2.60;;
75038;SDS011;63609;49.992;14.512;2023-12-14T16:03:11;5.90;;;3.17;;
75038;SDS011;63609;49.992;14.512;2023-12-14T16:05:38;7.82;;;3.20;;
75038;SDS011;63609;49.992;14.512;2023-12-14T16:08:05;7.00;;;3.40;;
75038;SDS011;63609;49.992;14.512;2023-12-14T16:10:34;7.00;;;3.75;;
75038;SDS011;63609;49.992;14.512;2023-12-14T16:13:01;6.45;;;3.55;;
75038;SDS011;63609;49.992;14.512;2023-12-14T16:15:29;9.82;;;4.60;;
75038;SDS011;63609;49.992;14.512;2023-12-14T16:17:58;6.78;;;3.70;;
75038;SDS011;63609;49.992;14.512;2023-12-14T16:20:25;7.68;;;3.67;;